SBYSSBLS

Guest
Details From SBYS - CAMPO FONTENELLE
To SBLS - LAGOA SANTA
Flight Number -
Tags generated
Created
Modified
Stats Distance 243 nm / 450 km
Max Altitude 17,300 ft / 5,273 m
Waypoints 4
Social Downloads 1
Likes 0
Share VATSIM

Download

Looking for another format? Having issues loading an existing format? Contact us
Advertisement - Login to hide

Notes

Basic altitude profile: - Ascent Rate: 1500ft/min - Ascent Speed: 150kts - Cruise Altitude: 13500ft - Cruise Speed: 180kts - Descent Rate: 1000ft/min - Descent Speed: 200kts Options: - Use NATs: no - Use PACOTS: no - Use low airways: yes - Use high airways: no

Route

SBYS PCL W1 MAVIK SBLS

ID Type Via Altitude (ft/m) Position (lat/lon) Dist (leg/tot) Name
O SBYS APT - 0 / 0 -21.98456 / -47.33690 - / 0 nm CAMPO FONTENELLE
PCL NDB - 15,600 / 4,755 -21.83583 / -46.56567 43 / 43 nm POCOS NDB
MAVIK FIX W1 (AWY-LO) 17,300 / 5,273 -20.52833 / -45.10650 113 / 157 nm
O SBLS APT - 0 / 0 -19.66161 / -43.89640 85 / 243 nm LAGOA SANTA

Altitude Profile

Advertisement - Login to hide

Weather


0- 5 10 15 20 25 30 35+ Temperature / °C

Clouds and Precipitation
Forecast for 2019-05-25 18:00 UTC. Updated 3 hours ago

Ground ~20,000 ft ~40,000 ft Winds

SBYS

Details ICAO SBYS (QPS)
Name CAMPO FONTENELLE
Region Brazil
Timezone America/Sao_Paulo (UTC-3.0)
Stats Elevation 1,968 ft / 600 m (AMSL)
Location -21.984600° -47.336900°
Runways 3
Magnetic Variation 21.454° W

METAR

SBYS 251800Z 35005KT CAVOK 19/09 Q1017

Decode

TAF

TAF SBYS 251600Z 2518/2606 34007KT CAVOK TX23/2518Z TN08/2605Z BECMG 2519/2521 26005KT BECMG 2522/2524 10005KT BECMG 2601/2603 00000KT RMK PEW

Decode

Departure Runways

ID Width Length Bearing (true/mag) Surface Threshold Overrun Markings Lighting
02C 148 ft / 45 m 6,949 ft / 2,118 m 359.84° / 21.30° ASPHALT 0 ft / 0 m 0 ft / 0 m PREC-APP EDGE THRESHOLD
02L 148 ft / 45 m 6,949 ft / 2,118 m 359.86° / 21.31° ASPHALT 0 ft / 0 m 0 ft / 0 m APP EDGE THRESHOLD
02R 148 ft / 45 m 6,259 ft / 1,908 m 359.65° / 21.10° ASPHALT 0 ft / 0 m 0 ft / 0 m APP
20C 148 ft / 45 m 6,949 ft / 2,118 m 179.84° / 201.30° ASPHALT 0 ft / 0 m 0 ft / 0 m APP EDGE THRESHOLD
20L 148 ft / 45 m 6,259 ft / 1,908 m 179.65° / 201.10° ASPHALT 0 ft / 0 m 0 ft / 0 m APP
20R 148 ft / 45 m 6,949 ft / 2,118 m 179.86° / 201.31° ASPHALT 0 ft / 0 m 0 ft / 0 m APP EDGE THRESHOLD

SBLS

Details ICAO SBLS
Name Lagoa Santa
Region Brazil
Timezone America/Sao_Paulo (UTC-3.0)
Stats Elevation 2,795 ft / 852 m (AMSL)
Location -19.661800° -43.897300°
Runways 1
Magnetic Variation 22.961° W

METAR

SBLS 251800Z 28008KT 230V340 9999 BKN040 25/14 Q1016

Decode

TAF

Not found

Destination Runways

ID Width Length Bearing (true/mag) Surface Threshold Overrun Markings Lighting
13 115 ft / 35 m 6,035 ft / 1,840 m 104.98° / 127.94° ASPHALT 0 ft / 0 m 0 ft / 0 m APP EDGE THRESHOLD
31 115 ft / 35 m 6,035 ft / 1,840 m 284.98° / 307.94° ASPHALT 0 ft / 0 m 0 ft / 0 m APP EDGE THRESHOLD